createdAt,value
2018-05-03T00:00:59.019Z,12.75
2018-05-03T00:01:59.101Z,12.78
2018-05-03T00:02:59.061Z,12.72
2018-05-03T00:03:59.080Z,12.73
2018-05-03T00:04:59.100Z,12.62
2018-05-03T00:05:59.123Z,12.64
2018-05-03T00:06:59.140Z,12.64
2018-05-03T00:07:59.161Z,12.70
2018-05-03T00:08:59.180Z,12.70
2018-05-03T00:09:59.203Z,12.68
2018-05-03T00:10:59.220Z,12.73
2018-05-03T00:11:59.248Z,12.72
2018-05-03T00:12:59.259Z,12.68
2018-05-03T00:13:59.281Z,12.62
2018-05-03T00:14:59.301Z,12.61
2018-05-03T00:15:59.321Z,12.65
2018-05-03T00:16:59.343Z,12.64
2018-05-03T00:17:59.360Z,12.54
2018-05-03T00:18:59.381Z,12.53
2018-05-03T00:19:59.400Z,12.57
2018-05-03T00:20:59.420Z,12.55
2018-05-03T00:21:59.440Z,12.50
2018-05-03T00:22:59.461Z,12.50
2018-05-03T00:23:59.480Z,12.49
2018-05-03T00:24:59.499Z,12.53
2018-05-03T00:25:59.520Z,12.54
2018-05-03T00:26:59.539Z,12.50
2018-05-03T00:27:59.560Z,12.50
2018-05-03T00:28:59.586Z,12.65
2018-05-03T00:29:59.600Z,12.61
2018-05-03T00:30:59.620Z,12.61
2018-05-03T00:31:59.639Z,12.65
2018-05-03T00:32:59.658Z,12.73
2018-05-03T00:33:59.679Z,12.78
2018-05-03T00:34:59.700Z,12.79
2018-05-03T00:35:59.719Z,12.90
2018-05-03T00:36:59.743Z,12.85
2018-05-03T00:37:59.758Z,12.83
2018-05-03T00:38:59.797Z,12.85
2018-05-03T00:39:59.798Z,12.83
2018-05-03T00:40:59.817Z,12.82
2018-05-03T00:41:59.837Z,12.82
2018-05-03T00:42:59.857Z,12.82
2018-05-03T00:43:59.878Z,12.85
2018-05-03T00:44:59.898Z,12.86
2018-05-03T00:45:59.918Z,12.85
2018-05-03T00:46:59.940Z,12.85
2018-05-03T00:47:59.958Z,12.90
2018-05-03T00:49:00.024Z,12.83
2018-05-03T00:49:59.997Z,12.85
2018-05-03T00:51:00.018Z,12.82
2018-05-03T00:52:00.038Z,12.86
2018-05-03T00:53:00.060Z,12.85
2018-05-03T00:54:00.077Z,12.80
2018-05-03T00:55:00.096Z,12.85
2018-05-03T00:56:00.117Z,12.78
2018-05-03T00:57:00.137Z,12.82
2018-05-03T00:58:00.157Z,12.73
2018-05-03T00:59:00.177Z,12.82
2018-05-03T01:00:00.199Z,12.79
2018-05-03T01:01:00.216Z,12.70
2018-05-03T01:02:00.237Z,12.73
2018-05-03T01:03:00.257Z,12.70
2018-05-03T01:04:00.277Z,12.70
2018-05-03T01:05:00.297Z,12.75
2018-05-03T01:06:00.316Z,12.70
2018-05-03T01:07:00.340Z,12.61
2018-05-03T01:08:00.357Z,12.67
2018-05-03T01:09:00.377Z,12.60
2018-05-03T01:10:00.397Z,12.62
2018-05-03T01:11:00.417Z,12.53
2018-05-03T01:12:00.438Z,12.46
2018-05-03T01:13:00.457Z,12.55
2018-05-03T01:14:00.477Z,12.46
2018-05-03T01:15:00.497Z,12.54
2018-05-03T01:16:00.517Z,12.57
2018-05-03T01:17:00.536Z,12.55
2018-05-03T01:18:00.557Z,12.50
2018-05-03T01:19:00.577Z,12.43
2018-05-03T01:20:00.597Z,12.46
2018-05-03T01:21:00.616Z,12.40
2018-05-03T01:22:00.636Z,12.43
2018-05-03T01:23:00.664Z,12.36
2018-05-03T01:24:00.679Z,12.39
2018-05-03T01:25:00.697Z,12.40
2018-05-03T01:26:00.716Z,12.37
2018-05-03T01:27:00.736Z,12.36
2018-05-03T01:28:00.758Z,12.37
2018-05-03T01:29:00.776Z,12.31
2018-05-03T01:30:00.804Z,12.27
2018-05-03T01:31:00.818Z,12.21
2018-05-03T01:32:00.842Z,12.24
2018-05-03T01:33:00.857Z,12.28
2018-05-03T01:34:00.877Z,12.22
2018-05-03T01:35:00.896Z,12.28
2018-05-03T01:36:00.916Z,12.18
2018-05-03T01:37:00.936Z,12.18
2018-05-03T01:38:00.956Z,12.10
2018-05-03T01:39:00.976Z,12.06
2018-05-03T01:40:00.997Z,12.07
2018-05-03T01:41:01.016Z,12.12
2018-05-03T01:42:01.035Z,12.15
2018-05-03T01:43:01.061Z,12.06
2018-05-03T01:44:01.079Z,12.02
2018-05-03T01:45:01.095Z,12.03
2018-05-03T01:46:01.115Z,12.02
2018-05-03T01:47:01.136Z,12.02
2018-05-03T01:48:01.156Z,12.06
2018-05-03T01:49:01.174Z,12.00
2018-05-03T01:50:01.194Z,12.04
2018-05-03T01:51:01.215Z,11.97
2018-05-03T01:52:01.236Z,11.95
2018-05-03T01:53:01.255Z,11.99
2018-05-03T01:54:01.273Z,11.95
2018-05-03T01:55:01.294Z,11.95
2018-05-03T01:56:01.313Z,11.97
2018-05-03T01:57:01.334Z,11.91
2018-05-03T01:58:01.353Z,11.80
2018-05-03T01:59:01.375Z,11.90
2018-05-03T02:00:01.393Z,11.87
2018-05-03T02:01:01.412Z,11.90
2018-05-03T02:02:01.434Z,11.88
2018-05-03T02:03:01.451Z,11.81
2018-05-03T02:04:01.473Z,11.83
2018-05-03T02:05:01.491Z,11.94
2018-05-03T02:06:01.511Z,11.84
2018-05-03T02:07:01.531Z,11.86
2018-05-03T02:08:01.553Z,11.81
2018-05-03T02:09:01.570Z,11.77
2018-05-03T02:10:01.590Z,11.87
2018-05-03T02:11:01.610Z,11.80
2018-05-03T02:12:01.630Z,11.83
2018-05-03T02:13:01.649Z,11.83
2018-05-03T02:14:01.668Z,11.84
2018-05-03T02:15:01.688Z,11.86
2018-05-03T02:16:01.708Z,11.84
2018-05-03T02:17:01.728Z,11.87
2018-05-03T02:18:01.750Z,11.77
2018-05-03T02:19:01.783Z,11.78
2018-05-03T02:20:01.787Z,11.69
2018-05-03T02:21:01.808Z,11.77
2018-05-03T02:22:01.826Z,11.73
2018-05-03T02:23:01.846Z,11.65
2018-05-03T02:24:01.866Z,11.78
2018-05-03T02:25:01.885Z,11.69
2018-05-03T02:26:01.906Z,11.70
2018-05-03T02:27:01.925Z,11.83
2018-05-03T02:28:01.945Z,11.78
2018-05-03T02:29:01.963Z,11.84
2018-05-03T02:30:01.984Z,11.81
2018-05-03T02:31:02.009Z,11.88
2018-05-03T02:32:02.025Z,11.84
2018-05-03T02:33:02.042Z,11.86
2018-05-03T02:34:02.063Z,11.95
2018-05-03T02:35:02.083Z,11.97
2018-05-03T02:36:02.135Z,11.94
2018-05-03T02:37:02.121Z,11.95
2018-05-03T02:38:02.142Z,11.94
2018-05-03T02:39:02.161Z,11.88
2018-05-03T02:40:02.180Z,11.94
2018-05-03T02:41:02.200Z,11.95
2018-05-03T02:42:02.219Z,11.97
2018-05-03T02:43:02.240Z,11.95
2018-05-03T02:44:02.260Z,11.91
2018-05-03T02:45:02.279Z,11.91
2018-05-03T02:46:02.300Z,12.00
2018-05-03T02:47:02.319Z,11.91
2018-05-03T02:48:02.340Z,12.06
2018-05-03T02:49:02.358Z,12.02
2018-05-03T02:50:02.378Z,12.04
2018-05-03T02:51:02.405Z,12.04
2018-05-03T02:52:02.418Z,12.04
2018-05-03T02:53:02.437Z,12.10
2018-05-03T02:54:02.457Z,12.13
2018-05-03T02:55:02.482Z,12.12
2018-05-03T02:56:02.496Z,12.17
2018-05-03T02:57:02.516Z,12.20
2018-05-03T02:58:02.537Z,12.25
2018-05-03T02:59:02.560Z,12.21
2018-05-03T03:00:02.582Z,12.22
2018-05-03T03:01:02.597Z,12.25
2018-05-03T03:02:02.622Z,12.24
2018-05-03T03:03:02.636Z,12.27
2018-05-03T03:04:02.658Z,12.22
2018-05-03T03:05:02.683Z,12.22
2018-05-03T03:06:02.696Z,12.25
2018-05-03T03:07:02.716Z,12.21
2018-05-03T03:08:02.735Z,12.21
2018-05-03T03:09:02.755Z,12.10
2018-05-03T03:10:02.780Z,12.13
2018-05-03T03:11:02.796Z,12.18
2018-05-03T03:12:02.815Z,12.20
2018-05-03T03:13:02.835Z,12.18
2018-05-03T03:14:02.854Z,12.24
2018-05-03T03:15:02.878Z,12.28
2018-05-03T03:16:02.895Z,12.21
2018-05-03T03:17:02.914Z,12.28
2018-05-03T03:18:02.934Z,12.29
2018-05-03T03:19:02.954Z,12.25
2018-05-03T03:20:02.975Z,12.25
2018-05-03T03:21:02.998Z,12.24
2018-05-03T03:22:03.092Z,12.29
2018-05-03T03:23:03.034Z,12.40
2018-05-03T03:24:03.055Z,12.37
2018-05-03T03:25:03.073Z,12.37
2018-05-03T03:26:03.093Z,12.42
2018-05-03T03:27:03.115Z,12.40
2018-05-03T03:28:03.133Z,12.43
2018-05-03T03:29:03.153Z,12.27
2018-05-03T03:30:03.173Z,12.37
2018-05-03T03:31:03.193Z,12.43
2018-05-03T03:32:03.218Z,12.35
2018-05-03T03:33:03.233Z,12.27
2018-05-03T03:34:03.263Z,12.29
2018-05-03T03:35:03.281Z,12.24
2018-05-03T03:36:03.293Z,12.27
2018-05-03T03:37:03.312Z,12.25
2018-05-03T03:38:03.334Z,12.20
2018-05-03T03:39:03.353Z,12.27
2018-05-03T03:40:03.374Z,12.29
2018-05-03T03:41:03.394Z,12.20
2018-05-03T03:42:03.413Z,12.22
2018-05-03T03:43:03.432Z,12.25
2018-05-03T03:44:03.457Z,12.27
2018-05-03T03:45:03.472Z,12.31
2018-05-03T03:46:03.492Z,12.27
2018-05-03T03:47:03.513Z,12.22
2018-05-03T03:48:03.533Z,12.22
2018-05-03T03:49:03.551Z,12.28
2018-05-03T03:50:03.575Z,12.31
2018-05-03T03:51:03.595Z,12.21
2018-05-03T03:52:03.612Z,12.25
2018-05-03T03:53:03.633Z,12.29
2018-05-03T03:54:03.652Z,12.13
2018-05-03T03:55:03.672Z,12.12
2018-05-03T03:56:03.692Z,12.06
2018-05-03T03:57:03.712Z,12.18
2018-05-03T03:58:03.731Z,12.06
2018-05-03T03:59:03.816Z,12.07
2018-05-03T04:00:03.772Z,12.13
2018-05-03T04:01:03.791Z,12.00
2018-05-03T04:02:03.812Z,12.10
2018-05-03T04:03:03.830Z,12.09
2018-05-03T04:04:03.853Z,12.03
2018-05-03T04:05:03.871Z,12.10
2018-05-03T04:06:03.891Z,12.04
2018-05-03T04:07:03.911Z,12.09
2018-05-03T04:08:03.931Z,12.00
2018-05-03T04:09:03.949Z,12.03
2018-05-03T04:10:03.970Z,12.03
2018-05-03T04:11:03.990Z,12.09
2018-05-03T04:12:04.010Z,12.02
2018-05-03T04:13:04.029Z,11.97
2018-05-03T04:14:04.048Z,11.94
2018-05-03T04:15:04.069Z,11.99
2018-05-03T04:16:04.089Z,11.88
2018-05-03T04:17:04.108Z,11.87
2018-05-03T04:18:04.128Z,11.95
2018-05-03T04:19:04.147Z,11.80
2018-05-03T04:20:04.167Z,11.68
2018-05-03T04:21:04.186Z,11.65
2018-05-03T04:22:04.211Z,11.68
2018-05-03T04:23:04.226Z,11.69
2018-05-03T04:24:04.248Z,11.69
2018-05-03T04:25:04.264Z,11.65
2018-05-03T04:26:04.283Z,11.69
2018-05-03T04:27:04.310Z,11.70
2018-05-03T04:28:04.327Z,11.68
2018-05-03T04:29:04.346Z,11.65
2018-05-03T04:30:04.361Z,11.69
2018-05-03T04:31:04.381Z,11.68
2018-05-03T04:32:04.400Z,11.70
2018-05-03T04:33:04.487Z,11.62
2018-05-03T04:34:04.438Z,11.63
2018-05-03T04:35:04.458Z,11.66
2018-05-03T04:36:04.477Z,11.66
2018-05-03T04:37:04.496Z,11.57
2018-05-03T04:38:04.516Z,11.52
2018-05-03T04:39:04.535Z,11.48
2018-05-03T04:40:04.558Z,11.45
2018-05-03T04:41:04.573Z,11.57
2018-05-03T04:42:04.592Z,11.47
2018-05-03T04:43:04.612Z,11.40
2018-05-03T04:44:04.631Z,11.51
2018-05-03T04:45:04.648Z,11.47
2018-05-03T04:46:04.669Z,11.47
2018-05-03T04:47:04.689Z,11.47
2018-05-03T04:48:04.708Z,11.47
2018-05-03T04:49:04.726Z,11.52
2018-05-03T04:50:04.746Z,11.48
2018-05-03T04:51:04.765Z,11.52
2018-05-03T04:52:04.784Z,11.48
2018-05-03T04:53:04.803Z,11.50
2018-05-03T04:54:04.850Z,11.50
2018-05-03T04:55:04.841Z,11.37
2018-05-03T04:56:04.861Z,11.47
2018-05-03T04:57:04.880Z,11.32
2018-05-03T04:58:04.897Z,11.41
2018-05-03T04:59:04.917Z,11.33
2018-05-03T05:00:04.937Z,11.43
2018-05-03T05:01:04.955Z,11.37
2018-05-03T05:02:04.976Z,11.33
2018-05-03T05:03:04.994Z,11.33
2018-05-03T05:04:05.014Z,11.51
2018-05-03T05:05:05.033Z,11.47
2018-05-03T05:06:05.081Z,11.50
2018-05-03T05:07:05.070Z,11.36
2018-05-03T05:08:05.095Z,11.35
2018-05-03T05:09:05.108Z,11.36
2018-05-03T05:10:05.128Z,11.35
2018-05-03T05:11:05.149Z,11.29
2018-05-03T05:12:05.166Z,11.35
2018-05-03T05:13:05.185Z,11.41
2018-05-03T05:14:05.207Z,11.40
2018-05-03T05:15:05.227Z,11.32
2018-05-03T05:16:05.242Z,11.33
2018-05-03T05:17:05.261Z,11.43
2018-05-03T05:18:05.280Z,11.44
2018-05-03T05:19:05.301Z,11.44
2018-05-03T05:20:05.319Z,11.40
2018-05-03T05:21:05.337Z,11.43
2018-05-03T05:22:05.356Z,11.33
2018-05-03T05:23:05.376Z,11.33
2018-05-03T05:24:05.450Z,11.40
2018-05-03T05:25:05.414Z,11.37
2018-05-03T05:26:05.433Z,11.36
2018-05-03T05:27:05.452Z,11.44
2018-05-03T05:28:05.472Z,11.54
2018-05-03T05:29:05.490Z,11.50
2018-05-03T05:30:05.510Z,11.50
2018-05-03T05:31:05.529Z,11.45
2018-05-03T05:32:05.548Z,11.50
2018-05-03T05:33:05.568Z,11.43
2018-05-03T05:34:05.588Z,11.40
2018-05-03T05:35:05.606Z,11.44
2018-05-03T05:36:05.626Z,11.37
2018-05-03T05:37:05.657Z,11.47
2018-05-03T05:38:05.663Z,11.47
2018-05-03T05:39:05.683Z,11.48
2018-05-03T05:40:05.704Z,11.48
2018-05-03T05:41:05.723Z,11.44
2018-05-03T05:42:05.740Z,11.48
2018-05-03T05:43:05.760Z,11.41
2018-05-03T05:44:05.779Z,11.45
2018-05-03T05:45:05.798Z,11.41
2018-05-03T05:46:05.817Z,11.52
2018-05-03T05:47:05.837Z,11.59
2018-05-03T05:48:05.856Z,11.62
2018-05-03T05:49:05.876Z,11.68
2018-05-03T05:50:05.895Z,11.60
2018-05-03T05:51:06.024Z,11.66
2018-05-03T05:52:05.934Z,11.51
2018-05-03T05:53:05.952Z,11.57
2018-05-03T05:54:05.973Z,11.52
2018-05-03T05:55:05.992Z,11.54
2018-05-03T05:56:06.012Z,11.54
2018-05-03T05:57:06.029Z,11.59
2018-05-03T05:58:06.052Z,11.66
2018-05-03T05:59:06.071Z,11.63
2018-05-03T06:00:06.090Z,11.66
2018-05-03T06:01:06.107Z,11.63
2018-05-03T06:02:06.127Z,11.87
2018-05-03T06:03:06.147Z,11.88
2018-05-03T06:04:06.167Z,11.94
2018-05-03T06:05:06.186Z,11.94
2018-05-03T06:06:06.206Z,11.80
2018-05-03T06:07:06.226Z,11.77
2018-05-03T06:08:06.244Z,11.81
2018-05-03T06:09:06.264Z,11.97
2018-05-03T06:10:06.285Z,11.83
2018-05-03T06:11:06.307Z,11.78
2018-05-03T06:12:06.323Z,11.81
2018-05-03T06:13:06.342Z,11.87
2018-05-03T06:14:06.362Z,11.94
2018-05-03T06:15:06.382Z,11.97
2018-05-03T06:16:06.401Z,11.97
2018-05-03T06:17:06.432Z,12.00
2018-05-03T06:18:06.441Z,12.03
2018-05-03T06:19:06.461Z,12.07
2018-05-03T06:20:06.480Z,12.15
2018-05-03T06:21:06.501Z,12.15
2018-05-03T06:22:06.519Z,12.10
2018-05-03T06:23:06.538Z,12.02
2018-05-03T06:24:06.558Z,12.03
2018-05-03T06:25:06.577Z,12.09
2018-05-03T06:26:06.649Z,12.20
2018-05-03T06:27:06.617Z,12.15
2018-05-03T06:28:06.636Z,12.09
2018-05-03T06:29:06.655Z,12.02
2018-05-03T06:30:06.676Z,11.99
2018-05-03T06:31:06.697Z,11.95
2018-05-03T06:32:06.719Z,11.95
2018-05-03T06:33:06.743Z,12.03
2018-05-03T06:34:06.755Z,11.99
2018-05-03T06:35:06.776Z,12.12
2018-05-03T06:36:06.795Z,12.15
2018-05-03T06:37:06.814Z,12.22
2018-05-03T06:38:06.834Z,12.18
2018-05-03T06:39:06.857Z,12.21
2018-05-03T06:40:06.872Z,12.06
2018-05-03T06:41:06.892Z,12.21
2018-05-03T06:42:06.911Z,12.29
2018-05-03T06:43:06.933Z,12.25
2018-05-03T06:44:06.954Z,12.39
2018-05-03T06:45:06.971Z,12.36
2018-05-03T06:46:06.992Z,12.46
2018-05-03T06:47:07.011Z,12.53
2018-05-03T06:48:07.036Z,12.76
2018-05-03T06:49:07.051Z,12.62
2018-05-03T06:50:07.070Z,12.62
2018-05-03T06:51:07.090Z,12.87
2018-05-03T06:52:07.111Z,12.95
2018-05-03T06:53:07.132Z,12.76
2018-05-03T06:54:07.382Z,12.47
2018-05-03T06:55:07.238Z,12.49
2018-05-03T06:56:08.423Z,12.49
2018-05-03T06:57:07.212Z,12.53
2018-05-03T06:58:07.230Z,12.65
2018-05-03T06:59:07.254Z,12.55
2018-05-03T07:00:07.274Z,12.79
2018-05-03T07:01:07.292Z,12.72
2018-05-03T07:02:07.311Z,12.87
2018-05-03T07:03:07.329Z,12.98
2018-05-03T07:04:07.428Z,12.97
2018-05-03T07:05:07.373Z,13.00
2018-05-03T07:06:07.396Z,12.91
2018-05-03T07:07:07.412Z,12.87
2018-05-03T07:08:07.431Z,12.98
2018-05-03T07:09:07.495Z,13.05
2018-05-03T07:10:07.471Z,13.11
2018-05-03T07:11:07.492Z,13.03
2018-05-03T07:12:07.516Z,12.95
2018-05-03T07:13:07.532Z,13.16
2018-05-03T07:14:07.552Z,13.16
2018-05-03T07:15:07.574Z,13.25
2018-05-03T07:16:08.345Z,13.33
2018-05-03T07:17:07.616Z,13.13
2018-05-03T07:18:07.634Z,13.31
2018-05-03T07:19:07.654Z,13.46
2018-05-03T07:20:07.924Z,13.63
2018-05-03T07:21:07.693Z,13.77
2018-05-03T07:22:07.714Z,13.79
2018-05-03T07:23:07.735Z,13.75
2018-05-03T07:24:07.756Z,13.75
2018-05-03T07:25:07.777Z,13.77
2018-05-03T07:26:07.812Z,13.75
2018-05-03T07:27:07.818Z,13.62
2018-05-03T07:28:07.842Z,13.78
2018-05-03T07:29:07.859Z,13.59
2018-05-03T07:30:07.881Z,13.74
2018-05-03T07:31:07.902Z,13.85
2018-05-03T07:32:07.923Z,13.71
2018-05-03T07:33:07.943Z,13.77
2018-05-03T07:34:07.965Z,13.83
2018-05-03T07:35:07.987Z,13.90
2018-05-03T07:36:08.010Z,13.99
2018-05-03T07:37:08.039Z,14.12
2018-05-03T07:38:08.049Z,14.23
2018-05-03T07:39:08.076Z,14.14
2018-05-03T07:40:08.094Z,14.22
2018-05-03T07:41:08.175Z,14.18
2018-05-03T07:42:08.137Z,14.12
2018-05-03T07:43:08.158Z,13.89
2018-05-03T07:44:08.181Z,13.85
2018-05-03T07:45:08.213Z,13.89
2018-05-03T07:46:08.223Z,13.71
2018-05-03T07:47:08.245Z,13.60
2018-05-03T07:48:08.266Z,13.62
2018-05-03T07:49:08.288Z,13.63
2018-05-03T07:50:08.311Z,13.59
2018-05-03T07:51:08.333Z,13.56
2018-05-03T07:52:08.353Z,13.54
2018-05-03T07:53:08.377Z,13.63
2018-05-03T07:54:08.397Z,13.68
2018-05-03T07:55:08.770Z,13.74
2018-05-03T07:56:08.441Z,13.78
2018-05-03T07:57:08.459Z,13.99
2018-05-03T07:58:08.482Z,14.11
2018-05-03T07:59:08.503Z,14.14
2018-05-03T08:00:08.745Z,13.97
2018-05-03T08:01:08.547Z,13.86
2018-05-03T08:02:08.636Z,13.78
2018-05-03T08:03:08.639Z,13.78
2018-05-03T08:04:08.609Z,13.74
2018-05-03T08:05:08.630Z,13.70
2018-05-03T08:06:08.651Z,13.75
2018-05-03T08:07:08.674Z,13.75
2018-05-03T08:08:08.694Z,13.72
2018-05-03T08:09:08.717Z,13.78
2018-05-03T08:10:08.737Z,13.79
2018-05-03T08:11:08.759Z,13.62
2018-05-03T08:12:08.780Z,13.54
2018-05-03T08:13:08.800Z,13.49
2018-05-03T08:14:08.821Z,13.42
2018-05-03T08:15:08.847Z,13.41
2018-05-03T08:16:08.864Z,13.59
2018-05-03T08:17:08.891Z,13.59
2018-05-03T08:18:08.906Z,13.70
2018-05-03T08:19:08.927Z,13.74
2018-05-03T08:20:08.949Z,14.00
2018-05-03T08:21:08.979Z,14.14
2018-05-03T08:22:08.994Z,14.15
2018-05-03T08:23:09.013Z,14.33
2018-05-03T08:24:09.034Z,14.25
2018-05-03T08:25:09.059Z,14.15
2018-05-03T08:26:09.076Z,14.11
2018-05-03T08:27:09.095Z,14.05
2018-05-03T08:28:09.117Z,14.20
2018-05-03T08:29:09.138Z,14.18
2018-05-03T08:30:09.159Z,14.10
2018-05-03T08:31:09.181Z,14.15
2018-05-03T08:32:09.203Z,14.18
2018-05-03T08:33:09.221Z,14.18
2018-05-03T08:34:09.694Z,14.22
2018-05-03T08:35:09.264Z,14.40
2018-05-03T08:36:09.285Z,14.32
2018-05-03T08:37:09.306Z,14.14
2018-05-03T08:38:09.327Z,14.26
2018-05-03T08:39:09.349Z,14.26
2018-05-03T08:40:09.371Z,14.22
2018-05-03T08:41:09.391Z,14.23
2018-05-03T08:42:09.763Z,14.30
2018-05-03T08:43:09.435Z,14.18
2018-05-03T08:44:09.460Z,14.30
2018-05-03T08:45:09.480Z,14.35
2018-05-03T08:46:09.497Z,14.44
2018-05-03T08:47:09.519Z,14.53
2018-05-03T08:48:09.540Z,14.50
2018-05-03T08:49:09.562Z,14.47
2018-05-03T08:50:09.582Z,14.66
2018-05-03T08:51:09.654Z,14.41
2018-05-03T08:52:09.626Z,14.26
2018-05-03T08:53:09.646Z,14.40
2018-05-03T08:54:09.718Z,14.53
2018-05-03T08:55:09.690Z,14.69
2018-05-03T08:56:09.711Z,14.84
2018-05-03T08:57:09.733Z,14.86
2018-05-03T08:58:09.753Z,14.91
2018-05-03T08:59:09.775Z,14.89
2018-05-03T09:00:09.799Z,14.70
2018-05-03T09:01:09.817Z,14.48
2018-05-03T09:02:09.840Z,14.41
2018-05-03T09:03:09.860Z,14.25
2018-05-03T09:04:09.882Z,14.15
2018-05-03T09:05:09.910Z,13.92
2018-05-03T09:06:09.925Z,14.05
2018-05-03T09:07:09.947Z,14.12
2018-05-03T09:08:09.969Z,14.12
2018-05-03T09:09:09.989Z,14.30
2018-05-03T09:10:10.011Z,14.53
2018-05-03T09:11:10.233Z,14.85
2018-05-03T09:12:10.054Z,14.88
2018-05-03T09:13:10.076Z,14.91
2018-05-03T09:14:10.247Z,15.11
2018-05-03T09:15:10.120Z,14.97
2018-05-03T09:16:10.141Z,14.73
2018-05-03T09:17:10.261Z,14.60
2018-05-03T09:18:10.183Z,14.73
2018-05-03T09:19:10.204Z,14.53
2018-05-03T09:20:10.226Z,14.53
2018-05-03T09:21:10.248Z,14.51
2018-05-03T09:22:10.269Z,14.59
2018-05-03T09:23:10.290Z,14.50
2018-05-03T09:24:10.312Z,14.78
2018-05-03T09:25:10.333Z,14.86
2018-05-03T09:26:10.360Z,14.91
2018-05-03T09:27:10.376Z,14.91
2018-05-03T09:28:10.398Z,15.15
2018-05-03T09:29:10.419Z,15.27
2018-05-03T09:30:10.693Z,15.27
2018-05-03T09:31:10.466Z,15.10
2018-05-03T09:32:10.484Z,14.96
2018-05-03T09:33:10.504Z,14.79
2018-05-03T09:34:10.528Z,14.59
2018-05-03T09:35:10.554Z,14.73
2018-05-03T09:36:10.572Z,14.72
2018-05-03T09:37:10.593Z,14.73
2018-05-03T09:38:10.614Z,14.66
2018-05-03T09:39:10.693Z,14.65
2018-05-03T09:40:10.659Z,14.69
2018-05-03T09:41:10.680Z,14.86
2018-05-03T09:42:10.702Z,14.91
2018-05-03T09:43:10.728Z,14.86
2018-05-03T09:44:10.744Z,15.03
2018-05-03T09:45:10.766Z,15.15
2018-05-03T09:46:10.792Z,15.40
2018-05-03T09:47:10.811Z,15.55
2018-05-03T09:48:10.832Z,15.57
2018-05-03T09:49:10.853Z,15.57
2018-05-03T09:50:10.875Z,15.65
2018-05-03T09:51:10.900Z,15.35
2018-05-03T09:52:10.920Z,15.15
2018-05-03T09:53:10.940Z,15.10
2018-05-03T09:54:10.963Z,15.10
2018-05-03T09:55:10.985Z,15.17
2018-05-03T09:56:11.041Z,15.28
2018-05-03T09:57:11.089Z,15.40
2018-05-03T09:58:11.050Z,15.51
2018-05-03T09:59:11.072Z,15.64
2018-05-03T10:00:11.301Z,15.57
2018-05-03T10:01:11.116Z,15.44
2018-05-03T10:02:11.139Z,15.28
2018-05-03T10:03:11.160Z,15.19
2018-05-03T10:04:11.183Z,15.29
2018-05-03T10:05:11.204Z,15.31
2018-05-03T10:06:11.226Z,15.33
2018-05-03T10:07:11.248Z,15.24
2018-05-03T10:08:11.271Z,15.21
2018-05-03T10:09:11.299Z,15.18
2018-05-03T10:10:11.314Z,15.07
2018-05-03T10:11:11.336Z,15.03
2018-05-03T10:12:11.359Z,15.11
2018-05-03T10:13:11.406Z,15.19
2018-05-03T10:14:11.407Z,15.24
2018-05-03T10:15:11.426Z,15.21
2018-05-03T10:16:11.447Z,15.15
2018-05-03T10:17:11.770Z,15.07
2018-05-03T10:18:11.492Z,15.17
2018-05-03T10:19:11.512Z,15.21
2018-05-03T10:20:11.538Z,15.27
2018-05-03T10:21:11.555Z,15.39
2018-05-03T10:22:11.578Z,15.37
2018-05-03T10:23:11.600Z,15.55
2018-05-03T10:24:11.622Z,15.65
2018-05-03T10:25:11.644Z,15.83
2018-05-03T10:26:11.673Z,15.83
2018-05-03T10:27:11.688Z,15.64
2018-05-03T10:28:11.710Z,15.33
2018-05-03T10:29:11.731Z,15.21
2018-05-03T10:30:11.762Z,15.40
2018-05-03T10:31:11.776Z,15.44
2018-05-03T10:32:11.798Z,15.40
2018-05-03T10:33:11.820Z,15.65
2018-05-03T10:34:11.843Z,15.68
2018-05-03T10:35:11.865Z,15.88
2018-05-03T10:36:11.980Z,15.88
2018-05-03T10:37:11.908Z,15.92
2018-05-03T10:38:11.931Z,15.77
2018-05-03T10:39:11.954Z,15.72
2018-05-03T10:40:11.976Z,15.84
2018-05-03T10:41:11.997Z,16.09
2018-05-03T10:42:12.067Z,15.88
2018-05-03T10:43:12.042Z,15.90
2018-05-03T10:44:12.065Z,15.83
2018-05-03T10:45:12.086Z,15.97
2018-05-03T10:46:12.109Z,16.17
2018-05-03T10:47:12.132Z,16.29
2018-05-03T10:48:12.153Z,16.57
2018-05-03T10:49:12.175Z,16.60
2018-05-03T10:50:12.200Z,16.65
2018-05-03T10:51:12.220Z,16.56
2018-05-03T10:52:12.243Z,16.51
2018-05-03T10:53:12.265Z,16.35
2018-05-03T10:54:12.288Z,15.92
2018-05-03T10:55:12.312Z,15.88
2018-05-03T10:56:12.634Z,15.88
2018-05-03T10:57:12.354Z,16.09
2018-05-03T10:58:12.384Z,16.33
2018-05-03T10:59:12.401Z,16.24
2018-05-03T11:00:12.423Z,16.33
2018-05-03T11:01:12.445Z,16.50
2018-05-03T11:02:12.467Z,16.33
2018-05-03T11:03:12.490Z,16.31
2018-05-03T11:04:12.513Z,16.21
2018-05-03T11:05:12.571Z,16.32
2018-05-03T11:06:12.557Z,16.38
2018-05-03T11:07:12.580Z,16.05
2018-05-03T11:08:12.604Z,15.95
2018-05-03T11:09:12.625Z,16.31
2018-05-03T11:10:12.647Z,16.31
2018-05-03T11:11:12.767Z,16.41
2018-05-03T11:12:12.693Z,16.50
2018-05-03T11:13:12.715Z,16.50
2018-05-03T11:14:12.738Z,16.58
2018-05-03T11:15:12.763Z,16.69
2018-05-03T11:16:12.782Z,16.57
2018-05-03T11:17:12.805Z,16.54
2018-05-03T11:18:12.828Z,16.32
2018-05-03T11:19:12.851Z,16.12
2018-05-03T11:20:12.877Z,16.12
2018-05-03T11:21:12.901Z,16.20
2018-05-03T11:22:12.919Z,16.28
2018-05-03T11:23:12.943Z,16.36
2018-05-03T11:24:12.965Z,16.43
2018-05-03T11:25:12.995Z,16.49
2018-05-03T11:26:13.021Z,16.20
2018-05-03T11:27:13.039Z,16.24
2018-05-03T11:28:13.056Z,16.38
2018-05-03T11:29:13.077Z,16.49
2018-05-03T11:30:13.100Z,16.49
2018-05-03T11:31:13.123Z,16.50
2018-05-03T11:32:13.500Z,16.56
2018-05-03T11:33:13.374Z,16.57
2018-05-03T11:34:13.192Z,16.42
2018-05-03T11:35:13.215Z,16.47
2018-05-03T11:36:13.238Z,16.51
2018-05-03T11:37:13.260Z,16.41
2018-05-03T11:38:13.283Z,16.51
2018-05-03T11:39:13.307Z,16.47
2018-05-03T11:40:13.328Z,16.53
2018-05-03T11:41:13.350Z,16.50
2018-05-03T11:42:13.373Z,16.47
2018-05-03T11:43:13.397Z,16.53
2018-05-03T11:44:13.419Z,16.50
2018-05-03T11:45:13.442Z,16.43
2018-05-03T11:46:13.464Z,16.58
2018-05-03T11:47:13.487Z,16.57
2018-05-03T11:48:13.510Z,16.65
2018-05-03T11:49:13.532Z,16.66
2018-05-03T11:50:13.555Z,16.53
2018-05-03T11:51:13.581Z,16.54
2018-05-03T11:52:13.601Z,16.68
2018-05-03T11:53:13.623Z,16.75
2018-05-03T11:54:13.647Z,16.87
2018-05-03T11:55:13.669Z,16.75
2018-05-03T11:56:13.693Z,16.61
2018-05-03T11:57:13.716Z,16.61
2018-05-03T11:58:13.742Z,16.57
2018-05-03T11:59:13.832Z,16.56
2018-05-03T12:00:13.860Z,16.81
2018-05-03T12:01:14.959Z,16.97
2018-05-03T12:02:13.830Z,16.93
2018-05-03T12:03:13.853Z,16.64
2018-05-03T12:04:13.876Z,16.57
2018-05-03T12:05:13.898Z,16.50
2018-05-03T12:06:13.922Z,16.66
2018-05-03T12:07:13.947Z,16.74
2018-05-03T12:08:13.969Z,16.64
2018-05-03T12:09:13.994Z,16.68
2018-05-03T12:10:14.014Z,16.54
2018-05-03T12:11:14.042Z,16.50
2018-05-03T12:12:14.061Z,16.54
2018-05-03T12:13:14.083Z,16.53
2018-05-03T12:14:14.107Z,16.56
2018-05-03T12:15:14.130Z,16.51
2018-05-03T12:16:14.153Z,16.56
2018-05-03T12:17:14.174Z,16.64
2018-05-03T12:18:14.199Z,16.72
2018-05-03T12:19:14.222Z,16.72
2018-05-03T12:20:14.244Z,16.79
2018-05-03T12:21:14.269Z,16.75
2018-05-03T12:22:14.302Z,16.54
2018-05-03T12:23:14.312Z,16.56
2018-05-03T12:24:14.336Z,16.54
2018-05-03T12:25:14.358Z,16.66
2018-05-03T12:26:14.382Z,16.47
2018-05-03T12:27:14.404Z,16.53
2018-05-03T12:28:14.428Z,16.54
2018-05-03T12:29:14.450Z,16.72
2018-05-03T12:30:14.473Z,16.97
2018-05-03T12:31:14.696Z,16.93
2018-05-03T12:32:14.522Z,17.08
2018-05-03T12:33:14.543Z,17.12
2018-05-03T12:34:14.565Z,17.02
2018-05-03T12:35:14.588Z,16.90
2018-05-03T12:36:14.611Z,16.84
2018-05-03T12:37:14.634Z,16.84
2018-05-03T12:38:14.656Z,16.90
2018-05-03T12:39:14.679Z,16.68
2018-05-03T12:40:14.703Z,16.61
2018-05-03T12:41:14.724Z,16.49
2018-05-03T12:42:14.748Z,16.32
2018-05-03T12:43:14.772Z,16.32
2018-05-03T12:44:14.795Z,16.43
2018-05-03T12:45:14.817Z,16.42
2018-05-03T12:46:14.843Z,16.57
2018-05-03T12:47:14.863Z,16.56
2018-05-03T12:48:14.885Z,16.75
2018-05-03T12:49:14.906Z,16.54
2018-05-03T12:50:14.930Z,16.72
2018-05-03T12:51:14.953Z,16.58
2018-05-03T12:52:15.576Z,16.65
2018-05-03T12:53:14.998Z,16.79